sensor_id;sensor_type;location;lat;lon;timestamp;P1;durP1;ratioP1;P2;durP2;ratioP2
61003;SDS011;46889;37.310;13.582;2022-10-22T00:00:12;19.73;;;15.90;;
61003;SDS011;46889;37.310;13.582;2022-10-22T00:02:40;20.10;;;13.98;;
61003;SDS011;46889;37.310;13.582;2022-10-22T00:10:00;20.38;;;13.60;;
61003;SDS011;46889;37.310;13.582;2022-10-22T00:12:38;16.95;;;12.35;;
61003;SDS011;46889;37.310;13.582;2022-10-22T00:15:05;17.90;;;13.57;;
61003;SDS011;46889;37.310;13.582;2022-10-22T00:17:32;20.48;;;13.13;;
61003;SDS011;46889;37.310;13.582;2022-10-22T00:19:58;18.30;;;14.20;;
61003;SDS011;46889;37.310;13.582;2022-10-22T00:22:27;19.20;;;14.13;;
61003;SDS011;46889;37.310;13.582;2022-10-22T00:24:55;17.40;;;13.73;;
61003;SDS011;46889;37.310;13.582;2022-10-22T00:27:21;19.05;;;13.98;;
61003;SDS011;46889;37.310;13.582;2022-10-22T00:29:50;18.13;;;14.82;;
61003;SDS011;46889;37.310;13.582;2022-10-22T00:32:18;21.60;;;14.55;;
61003;SDS011;46889;37.310;13.582;2022-10-22T00:34:50;20.50;;;14.52;;
61003;SDS011;46889;37.310;13.582;2022-10-22T00:37:16;20.15;;;14.82;;
61003;SDS011;46889;37.310;13.582;2022-10-22T00:39:42;21.95;;;15.77;;
61003;SDS011;46889;37.310;13.582;2022-10-22T00:42:11;19.27;;;14.80;;
61003;SDS011;46889;37.310;13.582;2022-10-22T00:50:46;20.42;;;14.57;;
61003;SDS011;46889;37.310;13.582;2022-10-22T00:56:09;16.60;;;13.48;;
61003;SDS011;46889;37.310;13.582;2022-10-22T00:58:44;15.95;;;12.77;;
61003;SDS011;46889;37.310;13.582;2022-10-22T01:01:17;18.70;;;13.13;;
61003;SDS011;46889;37.310;13.582;2022-10-22T01:03:46;19.98;;;14.48;;
61003;SDS011;46889;37.310;13.582;2022-10-22T01:06:14;18.48;;;13.63;;
61003;SDS011;46889;37.310;13.582;2022-10-22T01:17:23;15.30;;;12.38;;
61003;SDS011;46889;37.310;13.582;2022-10-22T01:26:03;17.83;;;13.43;;
61003;SDS011;46889;37.310;13.582;2022-10-22T01:32:02;18.83;;;13.48;;
61003;SDS011;46889;37.310;13.582;2022-10-22T01:34:33;16.80;;;13.40;;
61003;SDS011;46889;37.310;13.582;2022-10-22T01:37:00;15.65;;;12.98;;
61003;SDS011;46889;37.310;13.582;2022-10-22T01:39:29;18.42;;;12.73;;
61003;SDS011;46889;37.310;13.582;2022-10-22T01:41:56;17.85;;;13.02;;
61003;SDS011;46889;37.310;13.582;2022-10-22T01:44:23;21.00;;;14.20;;
61003;SDS011;46889;37.310;13.582;2022-10-22T01:50:13;15.63;;;12.90;;
61003;SDS011;46889;37.310;13.582;2022-10-22T01:53:17;19.02;;;13.45;;
61003;SDS011;46889;37.310;13.582;2022-10-22T02:04:18;17.60;;;13.50;;
61003;SDS011;46889;37.310;13.582;2022-10-22T02:06:53;18.05;;;13.00;;
61003;SDS011;46889;37.310;13.582;2022-10-22T02:09:24;17.33;;;12.98;;
61003;SDS011;46889;37.310;13.582;2022-10-22T02:11:53;17.38;;;13.55;;
61003;SDS011;46889;37.310;13.582;2022-10-22T02:14:23;20.55;;;14.25;;
61003;SDS011;46889;37.310;13.582;2022-10-22T02:16:52;18.73;;;14.15;;
61003;SDS011;46889;37.310;13.582;2022-10-22T02:19:26;16.25;;;13.00;;
61003;SDS011;46889;37.310;13.582;2022-10-22T02:21:57;20.10;;;14.10;;
61003;SDS011;46889;37.310;13.582;2022-10-22T02:24:23;20.73;;;13.75;;
61003;SDS011;46889;37.310;13.582;2022-10-22T02:35:36;17.27;;;13.23;;
61003;SDS011;46889;37.310;13.582;2022-10-22T02:38:05;18.73;;;13.98;;
61003;SDS011;46889;37.310;13.582;2022-10-22T02:40:36;18.75;;;13.20;;
61003;SDS011;46889;37.310;13.582;2022-10-22T02:43:03;19.75;;;14.90;;
61003;SDS011;46889;37.310;13.582;2022-10-22T02:45:31;18.42;;;13.55;;
61003;SDS011;46889;37.310;13.582;2022-10-22T02:48:13;18.77;;;14.30;;
61003;SDS011;46889;37.310;13.582;2022-10-22T02:50:39;18.20;;;13.18;;
61003;SDS011;46889;37.310;13.582;2022-10-22T02:53:06;19.88;;;13.35;;
61003;SDS011;46889;37.310;13.582;2022-10-22T02:55:32;18.30;;;13.98;;
61003;SDS011;46889;37.310;13.582;2022-10-22T02:57:58;20.20;;;13.77;;
61003;SDS011;46889;37.310;13.582;2022-10-22T03:00:26;16.73;;;13.02;;
61003;SDS011;46889;37.310;13.582;2022-10-22T03:02:52;16.50;;;13.45;;
61003;SDS011;46889;37.310;13.582;2022-10-22T03:08:10;19.02;;;13.38;;
61003;SDS011;46889;37.310;13.582;2022-10-22T03:10:36;18.30;;;13.43;;
61003;SDS011;46889;37.310;13.582;2022-10-22T03:13:02;16.17;;;12.77;;
61003;SDS011;46889;37.310;13.582;2022-10-22T03:15:28;17.20;;;12.95;;
61003;SDS011;46889;37.310;13.582;2022-10-22T03:17:54;15.75;;;12.43;;
61003;SDS011;46889;37.310;13.582;2022-10-22T03:20:23;16.55;;;13.00;;
61003;SDS011;46889;37.310;13.582;2022-10-22T03:22:50;18.67;;;13.98;;
61003;SDS011;46889;37.310;13.582;2022-10-22T03:25:18;21.92;;;13.55;;
61003;SDS011;46889;37.310;13.582;2022-10-22T03:27:46;17.27;;;12.80;;
61003;SDS011;46889;37.310;13.582;2022-10-22T03:30:15;17.00;;;13.05;;
61003;SDS011;46889;37.310;13.582;2022-10-22T03:32:41;16.40;;;12.93;;
61003;SDS011;46889;37.310;13.582;2022-10-22T03:35:07;16.92;;;13.48;;
61003;SDS011;46889;37.310;13.582;2022-10-22T03:37:34;18.75;;;13.77;;
61003;SDS011;46889;37.310;13.582;2022-10-22T03:40:01;16.75;;;11.95;;
61003;SDS011;46889;37.310;13.582;2022-10-22T03:42:30;16.27;;;13.75;;
61003;SDS011;46889;37.310;13.582;2022-10-22T03:47:24;16.30;;;12.88;;
61003;SDS011;46889;37.310;13.582;2022-10-22T03:49:50;20.92;;;13.80;;
61003;SDS011;46889;37.310;13.582;2022-10-22T03:52:18;16.60;;;12.85;;
61003;SDS011;46889;37.310;13.582;2022-10-22T03:54:46;16.23;;;13.65;;
61003;SDS011;46889;37.310;13.582;2022-10-22T03:59:50;20.83;;;13.88;;
61003;SDS011;46889;37.310;13.582;2022-10-22T04:02:19;18.27;;;13.30;;
61003;SDS011;46889;37.310;13.582;2022-10-22T04:04:45;20.55;;;13.13;;
61003;SDS011;46889;37.310;13.582;2022-10-22T04:07:13;16.05;;;13.75;;
61003;SDS011;46889;37.310;13.582;2022-10-22T04:09:39;19.77;;;13.30;;
61003;SDS011;46889;37.310;13.582;2022-10-22T04:12:05;16.27;;;11.23;;
61003;SDS011;46889;37.310;13.582;2022-10-22T04:14:33;18.73;;;14.77;;
61003;SDS011;46889;37.310;13.582;2022-10-22T04:16:59;18.52;;;14.13;;
61003;SDS011;46889;37.310;13.582;2022-10-22T04:19:25;21.00;;;14.73;;
61003;SDS011;46889;37.310;13.582;2022-10-22T04:21:51;19.95;;;14.50;;
61003;SDS011;46889;37.310;13.582;2022-10-22T04:24:17;18.27;;;13.65;;
61003;SDS011;46889;37.310;13.582;2022-10-22T04:26:44;19.67;;;14.65;;
61003;SDS011;46889;37.310;13.582;2022-10-22T04:29:11;20.13;;;14.82;;
61003;SDS011;46889;37.310;13.582;2022-10-22T04:31:37;18.92;;;13.98;;
61003;SDS011;46889;37.310;13.582;2022-10-22T04:34:03;17.23;;;13.90;;
61003;SDS011;46889;37.310;13.582;2022-10-22T04:36:29;19.10;;;13.80;;
61003;SDS011;46889;37.310;13.582;2022-10-22T04:38:56;18.05;;;14.10;;
61003;SDS011;46889;37.310;13.582;2022-10-22T04:41:28;17.80;;;14.27;;
61003;SDS011;46889;37.310;13.582;2022-10-22T04:43:56;20.70;;;16.20;;
61003;SDS011;46889;37.310;13.582;2022-10-22T04:46:26;27.88;;;15.82;;
61003;SDS011;46889;37.310;13.582;2022-10-22T04:48:54;19.67;;;14.93;;
61003;SDS011;46889;37.310;13.582;2022-10-22T04:51:20;16.17;;;14.10;;
61003;SDS011;46889;37.310;13.582;2022-10-22T04:53:48;21.08;;;14.10;;
61003;SDS011;46889;37.310;13.582;2022-10-22T04:58:45;19.88;;;13.38;;
61003;SDS011;46889;37.310;13.582;2022-10-22T05:01:14;16.17;;;12.85;;
61003;SDS011;46889;37.310;13.582;2022-10-22T05:03:44;19.50;;;13.68;;
61003;SDS011;46889;37.310;13.582;2022-10-22T05:06:14;17.98;;;13.25;;
61003;SDS011;46889;37.310;13.582;2022-10-22T05:08:40;19.60;;;13.95;;
61003;SDS011;46889;37.310;13.582;2022-10-22T05:11:16;18.20;;;14.65;;
61003;SDS011;46889;37.310;13.582;2022-10-22T05:13:44;14.82;;;12.63;;
61003;SDS011;46889;37.310;13.582;2022-10-22T05:16:11;18.33;;;14.52;;
61003;SDS011;46889;37.310;13.582;2022-10-22T05:18:39;16.58;;;13.52;;
61003;SDS011;46889;37.310;13.582;2022-10-22T05:21:13;18.40;;;12.73;;
61003;SDS011;46889;37.310;13.582;2022-10-22T05:23:42;16.23;;;12.60;;
61003;SDS011;46889;37.310;13.582;2022-10-22T05:26:09;16.40;;;13.10;;
61003;SDS011;46889;37.310;13.582;2022-10-22T05:28:37;17.25;;;12.70;;
61003;SDS011;46889;37.310;13.582;2022-10-22T05:31:05;20.17;;;13.98;;
61003;SDS011;46889;37.310;13.582;2022-10-22T05:33:32;18.27;;;14.07;;
61003;SDS011;46889;37.310;13.582;2022-10-22T05:35:59;20.98;;;15.15;;
61003;SDS011;46889;37.310;13.582;2022-10-22T05:38:27;20.38;;;15.60;;
61003;SDS011;46889;37.310;13.582;2022-10-22T05:40:59;19.15;;;13.80;;
61003;SDS011;46889;37.310;13.582;2022-10-22T05:43:26;16.77;;;13.65;;
61003;SDS011;46889;37.310;13.582;2022-10-22T05:45:53;17.13;;;14.15;;
61003;SDS011;46889;37.310;13.582;2022-10-22T05:48:19;15.15;;;12.68;;
61003;SDS011;46889;37.310;13.582;2022-10-22T05:50:45;17.48;;;13.93;;
61003;SDS011;46889;37.310;13.582;2022-10-22T05:53:16;18.02;;;12.50;;
61003;SDS011;46889;37.310;13.582;2022-10-22T05:55:44;15.35;;;11.50;;
61003;SDS011;46889;37.310;13.582;2022-10-22T06:00:36;14.90;;;11.45;;
61003;SDS011;46889;37.310;13.582;2022-10-22T06:03:03;14.80;;;11.27;;
61003;SDS011;46889;37.310;13.582;2022-10-22T06:05:30;13.07;;;9.95;;
61003;SDS011;46889;37.310;13.582;2022-10-22T06:08:15;13.25;;;10.32;;
61003;SDS011;46889;37.310;13.582;2022-10-22T06:10:44;14.50;;;9.80;;
61003;SDS011;46889;37.310;13.582;2022-10-22T06:13:14;11.98;;;9.45;;
61003;SDS011;46889;37.310;13.582;2022-10-22T06:15:41;11.88;;;9.70;;
61003;SDS011;46889;37.310;13.582;2022-10-22T06:18:10;12.25;;;10.23;;
61003;SDS011;46889;37.310;13.582;2022-10-22T06:20:37;12.02;;;9.25;;
61003;SDS011;46889;37.310;13.582;2022-10-22T06:23:03;15.93;;;10.10;;
61003;SDS011;46889;37.310;13.582;2022-10-22T06:25:29;13.00;;;9.63;;
61003;SDS011;46889;37.310;13.582;2022-10-22T06:27:55;12.05;;;9.32;;
61003;SDS011;46889;37.310;13.582;2022-10-22T06:30:21;13.05;;;9.20;;
61003;SDS011;46889;37.310;13.582;2022-10-22T06:32:47;11.18;;;8.68;;
61003;SDS011;46889;37.310;13.582;2022-10-22T06:35:19;12.40;;;8.30;;
61003;SDS011;46889;37.310;13.582;2022-10-22T06:37:45;14.20;;;8.80;;
61003;SDS011;46889;37.310;13.582;2022-10-22T06:40:14;11.55;;;8.75;;
61003;SDS011;46889;37.310;13.582;2022-10-22T06:42:42;12.88;;;7.90;;
61003;SDS011;46889;37.310;13.582;2022-10-22T06:45:16;12.52;;;8.30;;
61003;SDS011;46889;37.310;13.582;2022-10-22T06:47:42;11.27;;;8.88;;
61003;SDS011;46889;37.310;13.582;2022-10-22T06:50:08;12.63;;;8.63;;
61003;SDS011;46889;37.310;13.582;2022-10-22T06:52:34;11.32;;;8.30;;
61003;SDS011;46889;37.310;13.582;2022-10-22T06:55:00;14.93;;;7.70;;
61003;SDS011;46889;37.310;13.582;2022-10-22T06:57:45;13.63;;;8.13;;
61003;SDS011;46889;37.310;13.582;2022-10-22T07:00:11;13.50;;;8.35;;
61003;SDS011;46889;37.310;13.582;2022-10-22T07:02:38;11.05;;;8.35;;
61003;SDS011;46889;37.310;13.582;2022-10-22T07:05:04;11.55;;;8.82;;
61003;SDS011;46889;37.310;13.582;2022-10-22T07:07:47;11.77;;;8.30;;
61003;SDS011;46889;37.310;13.582;2022-10-22T07:10:13;11.85;;;8.05;;
61003;SDS011;46889;37.310;13.582;2022-10-22T07:12:40;10.85;;;7.95;;
61003;SDS011;46889;37.310;13.582;2022-10-22T07:15:06;14.13;;;7.90;;
61003;SDS011;46889;37.310;13.582;2022-10-22T07:17:32;12.95;;;7.25;;
61003;SDS011;46889;37.310;13.582;2022-10-22T07:19:58;8.57;;;7.03;;
61003;SDS011;46889;37.310;13.582;2022-10-22T07:22:24;11.07;;;8.00;;
61003;SDS011;46889;37.310;13.582;2022-10-22T07:24:51;11.07;;;6.97;;
61003;SDS011;46889;37.310;13.582;2022-10-22T07:27:17;10.07;;;6.93;;
61003;SDS011;46889;37.310;13.582;2022-10-22T07:29:43;12.43;;;7.25;;
61003;SDS011;46889;37.310;13.582;2022-10-22T07:32:10;11.68;;;7.13;;
61003;SDS011;46889;37.310;13.582;2022-10-22T07:34:36;8.93;;;6.85;;
61003;SDS011;46889;37.310;13.582;2022-10-22T07:37:02;13.40;;;7.72;;
61003;SDS011;46889;37.310;13.582;2022-10-22T07:39:29;9.10;;;6.80;;
61003;SDS011;46889;37.310;13.582;2022-10-22T07:41:55;12.43;;;7.85;;
61003;SDS011;46889;37.310;13.582;2022-10-22T07:44:22;9.90;;;6.97;;
61003;SDS011;46889;37.310;13.582;2022-10-22T07:46:48;9.75;;;6.75;;
61003;SDS011;46889;37.310;13.582;2022-10-22T07:49:14;10.57;;;7.88;;
61003;SDS011;46889;37.310;13.582;2022-10-22T07:51:40;10.77;;;6.95;;
61003;SDS011;46889;37.310;13.582;2022-10-22T07:54:06;10.35;;;6.80;;
61003;SDS011;46889;37.310;13.582;2022-10-22T07:56:32;8.55;;;6.40;;
61003;SDS011;46889;37.310;13.582;2022-10-22T07:58:59;10.65;;;6.95;;
61003;SDS011;46889;37.310;13.582;2022-10-22T08:01:25;10.85;;;7.00;;
61003;SDS011;46889;37.310;13.582;2022-10-22T08:06:18;12.85;;;7.38;;
61003;SDS011;46889;37.310;13.582;2022-10-22T08:08:44;9.13;;;6.85;;
61003;SDS011;46889;37.310;13.582;2022-10-22T08:11:10;11.73;;;7.57;;
61003;SDS011;46889;37.310;13.582;2022-10-22T08:13:36;10.48;;;7.07;;
61003;SDS011;46889;37.310;13.582;2022-10-22T08:16:04;15.27;;;7.90;;
61003;SDS011;46889;37.310;13.582;2022-10-22T08:18:30;9.20;;;6.60;;
61003;SDS011;46889;37.310;13.582;2022-10-22T08:20:58;16.17;;;7.13;;
61003;SDS011;46889;37.310;13.582;2022-10-22T08:23:25;15.52;;;6.80;;
61003;SDS011;46889;37.310;13.582;2022-10-22T08:25:51;10.77;;;6.45;;
61003;SDS011;46889;37.310;13.582;2022-10-22T08:28:18;8.82;;;6.40;;
61003;SDS011;46889;37.310;13.582;2022-10-22T08:30:45;9.73;;;6.00;;
61003;SDS011;46889;37.310;13.582;2022-10-22T08:33:12;10.30;;;5.75;;
61003;SDS011;46889;37.310;13.582;2022-10-22T08:35:39;9.90;;;5.72;;
61003;SDS011;46889;37.310;13.582;2022-10-22T08:38:05;9.48;;;5.90;;
61003;SDS011;46889;37.310;13.582;2022-10-22T08:40:32;10.00;;;5.72;;
61003;SDS011;46889;37.310;13.582;2022-10-22T08:43:10;8.80;;;6.15;;
61003;SDS011;46889;37.310;13.582;2022-10-22T08:48:47;9.07;;;6.68;;
61003;SDS011;46889;37.310;13.582;2022-10-22T08:51:34;8.70;;;6.15;;
61003;SDS011;46889;37.310;13.582;2022-10-22T08:54:06;10.43;;;6.75;;
61003;SDS011;46889;37.310;13.582;2022-10-22T09:00:01;9.18;;;6.18;;
61003;SDS011;46889;37.310;13.582;2022-10-22T09:08:00;10.38;;;6.55;;
61003;SDS011;46889;37.310;13.582;2022-10-22T09:10:28;10.43;;;6.78;;
61003;SDS011;46889;37.310;13.582;2022-10-22T09:12:59;10.13;;;6.30;;
61003;SDS011;46889;37.310;13.582;2022-10-22T09:15:26;8.90;;;5.15;;
61003;SDS011;46889;37.310;13.582;2022-10-22T09:24:44;9.63;;;6.30;;
61003;SDS011;46889;37.310;13.582;2022-10-22T09:26:52;7.68;;;5.55;;
61003;SDS011;46889;37.310;13.582;2022-10-22T09:29:33;8.52;;;5.72;;
61003;SDS011;46889;37.310;13.582;2022-10-22T09:32:00;7.40;;;5.03;;
61003;SDS011;46889;37.310;13.582;2022-10-22T09:34:27;10.23;;;6.05;;
61003;SDS011;46889;37.310;13.582;2022-10-22T09:37:04;9.27;;;5.68;;
61003;SDS011;46889;37.310;13.582;2022-10-22T09:39:38;11.95;;;5.40;;
61003;SDS011;46889;37.310;13.582;2022-10-22T09:42:09;11.77;;;5.67;;
61003;SDS011;46889;37.310;13.582;2022-10-22T09:44:38;9.52;;;5.05;;
61003;SDS011;46889;37.310;13.582;2022-10-22T09:47:22;10.20;;;5.53;;
61003;SDS011;46889;37.310;13.582;2022-10-22T09:55:43;13.85;;;6.35;;
61003;SDS011;46889;37.310;13.582;2022-10-22T09:58:16;11.32;;;5.93;;
61003;SDS011;46889;37.310;13.582;2022-10-22T10:00:44;11.70;;;7.88;;
61003;SDS011;46889;37.310;13.582;2022-10-22T10:03:18;9.60;;;6.15;;
61003;SDS011;46889;37.310;13.582;2022-10-22T10:05:53;10.50;;;6.97;;
61003;SDS011;46889;37.310;13.582;2022-10-22T10:08:23;9.77;;;5.95;;
61003;SDS011;46889;37.310;13.582;2022-10-22T10:10:55;13.60;;;6.50;;
61003;SDS011;46889;37.310;13.582;2022-10-22T10:13:45;15.63;;;7.20;;
61003;SDS011;46889;37.310;13.582;2022-10-22T10:22:01;10.73;;;5.40;;
61003;SDS011;46889;37.310;13.582;2022-10-22T10:24:48;8.20;;;5.57;;
61003;SDS011;46889;37.310;13.582;2022-10-22T10:27:30;9.63;;;5.93;;
61003;SDS011;46889;37.310;13.582;2022-10-22T10:30:22;10.63;;;5.20;;
61003;SDS011;46889;37.310;13.582;2022-10-22T10:36:03;10.88;;;6.00;;
61003;SDS011;46889;37.310;13.582;2022-10-22T10:38:53;9.48;;;5.10;;
61003;SDS011;46889;37.310;13.582;2022-10-22T10:47:37;7.82;;;4.93;;
61003;SDS011;46889;37.310;13.582;2022-10-22T10:50:33;9.45;;;5.22;;
61003;SDS011;46889;37.310;13.582;2022-10-22T10:53:26;13.15;;;5.55;;
61003;SDS011;46889;37.310;13.582;2022-10-22T10:56:10;10.32;;;5.32;;
61003;SDS011;46889;37.310;13.582;2022-10-22T10:58:58;12.18;;;6.05;;
61003;SDS011;46889;37.310;13.582;2022-10-22T11:08:12;14.70;;;6.40;;
61003;SDS011;46889;37.310;13.582;2022-10-22T11:10:53;13.93;;;7.15;;
61003;SDS011;46889;37.310;13.582;2022-10-22T11:13:40;7.55;;;4.68;;
61003;SDS011;46889;37.310;13.582;2022-10-22T11:19:02;7.00;;;5.05;;
61003;SDS011;46889;37.310;13.582;2022-10-22T11:21:33;8.63;;;5.50;;
61003;SDS011;46889;37.310;13.582;2022-10-22T11:24:22;12.13;;;5.55;;
61003;SDS011;46889;37.310;13.582;2022-10-22T11:29:21;9.05;;;5.50;;
61003;SDS011;46889;37.310;13.582;2022-10-22T11:32:00;11.30;;;5.40;;
61003;SDS011;46889;37.310;13.582;2022-10-22T11:34:35;8.68;;;5.13;;
61003;SDS011;46889;37.310;13.582;2022-10-22T11:37:10;7.82;;;4.78;;
61003;SDS011;46889;37.310;13.582;2022-10-22T11:42:05;11.25;;;4.82;;
61003;SDS011;46889;37.310;13.582;2022-10-22T11:44:45;8.38;;;4.80;;
61003;SDS011;46889;37.310;13.582;2022-10-22T11:47:24;8.80;;;4.75;;
61003;SDS011;46889;37.310;13.582;2022-10-22T11:49:56;8.90;;;5.03;;
61003;SDS011;46889;37.310;13.582;2022-10-22T11:55:32;12.55;;;4.68;;
61003;SDS011;46889;37.310;13.582;2022-10-22T11:58:27;8.93;;;4.65;;
61003;SDS011;46889;37.310;13.582;2022-10-22T12:01:26;7.10;;;4.57;;
61003;SDS011;46889;37.310;13.582;2022-10-22T12:06:29;6.63;;;4.70;;
61003;SDS011;46889;37.310;13.582;2022-10-22T12:09:47;6.68;;;4.20;;
61003;SDS011;46889;37.310;13.582;2022-10-22T12:12:19;8.07;;;5.43;;
61003;SDS011;46889;37.310;13.582;2022-10-22T12:14:52;8.18;;;4.65;;
61003;SDS011;46889;37.310;13.582;2022-10-22T12:17:22;7.05;;;4.57;;
61003;SDS011;46889;37.310;13.582;2022-10-22T12:20:00;7.00;;;4.35;;
61003;SDS011;46889;37.310;13.582;2022-10-22T12:22:35;7.35;;;4.63;;
61003;SDS011;46889;37.310;13.582;2022-10-22T12:25:18;7.63;;;4.20;;
61003;SDS011;46889;37.310;13.582;2022-10-22T12:27:57;7.40;;;4.50;;
61003;SDS011;46889;37.310;13.582;2022-10-22T12:30:32;5.72;;;3.80;;
61003;SDS011;46889;37.310;13.582;2022-10-22T12:32:59;9.98;;;4.28;;
61003;SDS011;46889;37.310;13.582;2022-10-22T12:35:33;8.23;;;4.43;;
61003;SDS011;46889;37.310;13.582;2022-10-22T12:38:16;7.60;;;4.60;;
61003;SDS011;46889;37.310;13.582;2022-10-22T12:43:13;6.60;;;4.15;;
61003;SDS011;46889;37.310;13.582;2022-10-22T12:45:48;5.25;;;4.13;;
61003;SDS011;46889;37.310;13.582;2022-10-22T12:48:26;6.93;;;4.30;;
61003;SDS011;46889;37.310;13.582;2022-10-22T12:50:59;7.35;;;4.50;;
61003;SDS011;46889;37.310;13.582;2022-10-22T12:53:38;10.40;;;5.30;;
61003;SDS011;46889;37.310;13.582;2022-10-22T12:56:11;6.95;;;4.25;;
61003;SDS011;46889;37.310;13.582;2022-10-22T13:01:28;8.85;;;4.68;;
61003;SDS011;46889;37.310;13.582;2022-10-22T13:04:17;8.13;;;4.95;;
61003;SDS011;46889;37.310;13.582;2022-10-22T13:07:15;8.68;;;4.60;;
61003;SDS011;46889;37.310;13.582;2022-10-22T13:09:48;7.40;;;4.20;;
61003;SDS011;46889;37.310;13.582;2022-10-22T13:12:43;9.27;;;4.53;;
61003;SDS011;46889;37.310;13.582;2022-10-22T13:15:18;10.05;;;5.10;;
61003;SDS011;46889;37.310;13.582;2022-10-22T13:18:00;8.15;;;4.50;;
61003;SDS011;46889;37.310;13.582;2022-10-22T13:20:28;8.40;;;5.38;;
61003;SDS011;46889;37.310;13.582;2022-10-22T13:25:30;8.40;;;5.20;;
61003;SDS011;46889;37.310;13.582;2022-10-22T13:31:01;12.27;;;5.50;;
61003;SDS011;46889;37.310;13.582;2022-10-22T13:33:38;7.38;;;4.63;;
61003;SDS011;46889;37.310;13.582;2022-10-22T13:36:08;6.60;;;3.97;;
61003;SDS011;46889;37.310;13.582;2022-10-22T13:38:40;13.68;;;5.05;;
61003;SDS011;46889;37.310;13.582;2022-10-22T13:41:21;10.38;;;4.60;;
61003;SDS011;46889;37.310;13.582;2022-10-22T13:43:52;10.15;;;4.75;;
61003;SDS011;46889;37.310;13.582;2022-10-22T13:46:37;10.98;;;4.57;;
61003;SDS011;46889;37.310;13.582;2022-10-22T13:49:09;6.15;;;4.20;;
61003;SDS011;46889;37.310;13.582;2022-10-22T13:51:40;8.82;;;4.88;;
61003;SDS011;46889;37.310;13.582;2022-10-22T13:54:14;6.25;;;4.60;;
61003;SDS011;46889;37.310;13.582;2022-10-22T13:59:10;7.03;;;4.65;;
61003;SDS011;46889;37.310;13.582;2022-10-22T14:01:38;9.50;;;4.65;;
61003;SDS011;46889;37.310;13.582;2022-10-22T14:04:06;10.35;;;4.45;;
61003;SDS011;46889;37.310;13.582;2022-10-22T14:06:37;6.72;;;4.28;;
61003;SDS011;46889;37.310;13.582;2022-10-22T14:09:04;5.25;;;3.90;;
61003;SDS011;46889;37.310;13.582;2022-10-22T14:11:33;7.10;;;4.50;;
61003;SDS011;46889;37.310;13.582;2022-10-22T14:14:01;6.90;;;4.30;;
61003;SDS011;46889;37.310;13.582;2022-10-22T14:16:29;8.38;;;4.28;;
61003;SDS011;46889;37.310;13.582;2022-10-22T14:18:57;6.55;;;4.32;;
61003;SDS011;46889;37.310;13.582;2022-10-22T14:21:28;8.50;;;4.32;;
61003;SDS011;46889;37.310;13.582;2022-10-22T14:24:02;8.23;;;4.60;;
61003;SDS011;46889;37.310;13.582;2022-10-22T14:26:30;10.23;;;4.00;;
61003;SDS011;46889;37.310;13.582;2022-10-22T14:28:58;6.47;;;4.10;;
61003;SDS011;46889;37.310;13.582;2022-10-22T14:31:25;8.55;;;4.38;;
61003;SDS011;46889;37.310;13.582;2022-10-22T14:33:53;7.60;;;4.30;;
61003;SDS011;46889;37.310;13.582;2022-10-22T14:36:19;5.78;;;4.15;;
61003;SDS011;46889;37.310;13.582;2022-10-22T14:38:47;6.03;;;4.35;;
61003;SDS011;46889;37.310;13.582;2022-10-22T14:41:16;7.60;;;4.70;;
61003;SDS011;46889;37.310;13.582;2022-10-22T14:43:47;8.77;;;4.80;;
61003;SDS011;46889;37.310;13.582;2022-10-22T14:46:15;7.10;;;4.68;;
61003;SDS011;46889;37.310;13.582;2022-10-22T14:48:42;6.78;;;3.92;;
61003;SDS011;46889;37.310;13.582;2022-10-22T14:51:12;7.65;;;4.65;;
61003;SDS011;46889;37.310;13.582;2022-10-22T14:53:39;8.35;;;4.43;;
61003;SDS011;46889;37.310;13.582;2022-10-22T15:03:25;7.60;;;4.82;;
61003;SDS011;46889;37.310;13.582;2022-10-22T15:05:51;9.20;;;4.78;;
61003;SDS011;46889;37.310;13.582;2022-10-22T15:13:09;10.52;;;5.50;;
61003;SDS011;46889;37.310;13.582;2022-10-22T15:15:41;8.93;;;4.85;;
61003;SDS011;46889;37.310;13.582;2022-10-22T15:18:07;7.20;;;5.07;;
61003;SDS011;46889;37.310;13.582;2022-10-22T15:20:34;7.65;;;5.20;;
61003;SDS011;46889;37.310;13.582;2022-10-22T15:23:00;7.90;;;5.13;;
61003;SDS011;46889;37.310;13.582;2022-10-22T15:25:30;9.27;;;5.25;;
61003;SDS011;46889;37.310;13.582;2022-10-22T15:27:56;8.98;;;5.00;;
61003;SDS011;46889;37.310;13.582;2022-10-22T15:30:22;9.70;;;5.10;;
61003;SDS011;46889;37.310;13.582;2022-10-22T15:32:49;9.80;;;5.43;;
61003;SDS011;46889;37.310;13.582;2022-10-22T15:35:15;10.48;;;4.95;;
61003;SDS011;46889;37.310;13.582;2022-10-22T15:37:41;10.88;;;5.03;;
61003;SDS011;46889;37.310;13.582;2022-10-22T15:40:08;8.32;;;5.30;;
61003;SDS011;46889;37.310;13.582;2022-10-22T15:45:01;9.23;;;5.20;;
61003;SDS011;46889;37.310;13.582;2022-10-22T15:47:27;9.57;;;5.55;;
61003;SDS011;46889;37.310;13.582;2022-10-22T15:49:55;8.02;;;5.70;;
61003;SDS011;46889;37.310;13.582;2022-10-22T15:52:22;8.73;;;5.60;;
61003;SDS011;46889;37.310;13.582;2022-10-22T15:54:48;9.52;;;6.05;;
61003;SDS011;46889;37.310;13.582;2022-10-22T15:57:16;7.63;;;6.07;;
61003;SDS011;46889;37.310;13.582;2022-10-22T15:59:43;8.57;;;5.85;;
61003;SDS011;46889;37.310;13.582;2022-10-22T16:02:11;8.73;;;6.32;;
61003;SDS011;46889;37.310;13.582;2022-10-22T16:04:38;9.63;;;6.38;;
61003;SDS011;46889;37.310;13.582;2022-10-22T16:07:05;10.65;;;7.53;;
61003;SDS011;46889;37.310;13.582;2022-10-22T16:09:31;10.77;;;7.45;;
61003;SDS011;46889;37.310;13.582;2022-10-22T16:11:57;8.98;;;7.43;;
61003;SDS011;46889;37.310;13.582;2022-10-22T16:14:23;12.35;;;8.07;;
61003;SDS011;46889;37.310;13.582;2022-10-22T16:16:53;10.35;;;6.82;;
61003;SDS011;46889;37.310;13.582;2022-10-22T16:19:22;13.80;;;8.13;;
61003;SDS011;46889;37.310;13.582;2022-10-22T16:21:50;9.88;;;7.55;;
61003;SDS011;46889;37.310;13.582;2022-10-22T16:24:18;8.20;;;6.45;;
61003;SDS011;46889;37.310;13.582;2022-10-22T16:26:46;10.93;;;6.90;;
61003;SDS011;46889;37.310;13.582;2022-10-22T16:29:12;10.65;;;6.50;;
61003;SDS011;46889;37.310;13.582;2022-10-22T16:31:39;8.45;;;6.20;;
61003;SDS011;46889;37.310;13.582;2022-10-22T16:34:07;9.60;;;6.50;;
61003;SDS011;46889;37.310;13.582;2022-10-22T16:36:34;12.20;;;6.60;;
61003;SDS011;46889;37.310;13.582;2022-10-22T16:39:03;12.40;;;6.95;;
61003;SDS011;46889;37.310;13.582;2022-10-22T16:41:30;12.20;;;7.60;;
61003;SDS011;46889;37.310;13.582;2022-10-22T16:44:04;17.58;;;7.78;;
61003;SDS011;46889;37.310;13.582;2022-10-22T16:46:32;13.38;;;8.15;;
61003;SDS011;46889;37.310;13.582;2022-10-22T16:49:00;11.95;;;7.78;;
61003;SDS011;46889;37.310;13.582;2022-10-22T16:51:27;12.10;;;7.93;;
61003;SDS011;46889;37.310;13.582;2022-10-22T16:53:53;12.10;;;7.65;;
61003;SDS011;46889;37.310;13.582;2022-10-22T16:56:21;13.27;;;8.50;;
61003;SDS011;46889;37.310;13.582;2022-10-22T16:58:50;12.80;;;7.97;;
61003;SDS011;46889;37.310;13.582;2022-10-22T17:01:19;13.15;;;8.13;;
61003;SDS011;46889;37.310;13.582;2022-10-22T17:03:46;14.93;;;7.28;;
61003;SDS011;46889;37.310;13.582;2022-10-22T17:06:13;12.85;;;7.72;;
61003;SDS011;46889;37.310;13.582;2022-10-22T17:08:40;8.32;;;6.50;;
61003;SDS011;46889;37.310;13.582;2022-10-22T17:11:08;11.10;;;7.00;;
61003;SDS011;46889;37.310;13.582;2022-10-22T17:13:42;9.93;;;6.93;;